createdAt,value
2017-05-15T00:01:04.592Z,91.10
2017-05-15T00:03:33.657Z,91.60
2017-05-15T00:06:03.468Z,91.80
2017-05-15T00:08:32.750Z,91.80
2017-05-15T00:11:01.834Z,91.70
2017-05-15T00:13:30.931Z,91.90
2017-05-15T00:16:00.010Z,91.50
2017-05-15T00:18:29.103Z,91.60
2017-05-15T00:20:58.207Z,91.70
2017-05-15T00:23:27.591Z,91.60
2017-05-15T00:25:56.639Z,91.70
2017-05-15T00:28:25.733Z,92.20
2017-05-15T00:30:54.822Z,91.80
2017-05-15T00:33:24.640Z,92.00
2017-05-15T00:35:53.783Z,91.90
2017-05-15T00:38:22.851Z,91.80
2017-05-15T00:40:52.154Z,91.60
2017-05-15T00:43:21.327Z,91.70
2017-05-15T00:45:51.168Z,91.70
2017-05-15T00:48:20.279Z,91.60
2017-05-15T00:50:49.327Z,91.60
2017-05-15T00:53:18.414Z,92.00
2017-05-15T00:55:48.223Z,92.00
2017-05-15T00:58:17.665Z,91.90
2017-05-15T01:00:46.742Z,92.00
2017-05-15T01:03:16.667Z,91.90
2017-05-15T01:05:45.769Z,91.90
2017-05-15T01:08:14.916Z,92.00
2017-05-15T01:10:44.138Z,91.60
2017-05-15T01:13:13.955Z,91.70
2017-05-15T01:15:43.781Z,91.30
2017-05-15T01:18:12.884Z,91.20
2017-05-15T01:20:41.982Z,91.30
2017-05-15T01:23:11.075Z,91.30
2017-05-15T01:25:40.177Z,91.00
2017-05-15T01:28:09.658Z,91.00
2017-05-15T01:30:39.459Z,91.20
2017-05-15T01:33:09.277Z,91.20
2017-05-15T01:35:39.095Z,91.30
2017-05-15T01:38:08.296Z,91.30
2017-05-15T01:40:37.386Z,91.40
2017-05-15T01:43:06.479Z,91.30
2017-05-15T01:45:35.569Z,91.50
2017-05-15T01:48:05.368Z,91.70
2017-05-15T01:50:34.606Z,91.70
2017-05-15T01:53:03.692Z,91.80
2017-05-15T01:55:32.758Z,91.90
2017-05-15T01:58:02.592Z,91.90
2017-05-15T02:00:31.672Z,91.90
2017-05-15T02:03:00.791Z,91.90
2017-05-15T02:05:29.859Z,91.90
2017-05-15T02:07:59.374Z,92.00
2017-05-15T02:10:28.451Z,91.90
2017-05-15T02:12:57.539Z,92.00
2017-05-15T02:15:27.371Z,92.00
2017-05-15T02:17:56.446Z,92.00
2017-05-15T02:20:26.286Z,92.20
2017-05-15T02:22:55.498Z,92.30
2017-05-15T02:25:24.605Z,92.40
2017-05-15T02:27:53.847Z,92.30
2017-05-15T02:30:22.912Z,92.20
2017-05-15T02:32:52.014Z,92.20
2017-05-15T02:35:21.091Z,92.20
2017-05-15T02:37:50.300Z,92.30
2017-05-15T02:40:19.362Z,92.20
2017-05-15T02:42:48.430Z,92.30
2017-05-15T02:45:18.263Z,92.30
2017-05-15T02:47:47.333Z,92.30
2017-05-15T02:50:17.181Z,92.30
2017-05-15T02:52:46.243Z,92.40
2017-05-15T02:55:16.079Z,92.30
2017-05-15T02:57:45.149Z,92.40
2017-05-15T03:00:15.091Z,92.30
2017-05-15T03:02:44.291Z,92.40
2017-05-15T03:05:13.359Z,92.30
2017-05-15T03:07:42.496Z,92.30
2017-05-15T03:10:11.563Z,92.30
2017-05-15T03:12:40.986Z,92.10
2017-05-15T03:15:10.058Z,92.20
2017-05-15T03:17:39.260Z,92.20
2017-05-15T03:20:08.314Z,92.10
2017-05-15T03:22:37.395Z,92.20
2017-05-15T03:25:06.490Z,92.20
2017-05-15T03:27:35.571Z,92.10
2017-05-15T03:30:05.037Z,91.70
2017-05-15T03:32:34.105Z,91.40
2017-05-15T03:35:03.921Z,91.50
2017-05-15T03:37:33.865Z,91.30
2017-05-15T03:40:03.656Z,91.30
2017-05-15T03:42:32.868Z,91.30
2017-05-15T03:45:01.951Z,91.40
2017-05-15T03:47:31.751Z,91.40
2017-05-15T03:50:00.873Z,91.30
2017-05-15T03:52:29.933Z,91.00
2017-05-15T03:54:59.016Z,91.10
2017-05-15T03:57:28.067Z,90.90
2017-05-15T03:59:57.252Z,90.80
2017-05-15T04:02:26.467Z,90.60
2017-05-15T04:04:55.544Z,90.80
2017-05-15T04:07:24.642Z,90.60
2017-05-15T04:09:53.707Z,90.50
2017-05-15T04:12:23.547Z,90.70
2017-05-15T04:14:52.627Z,90.90
2017-05-15T04:17:22.556Z,91.00
2017-05-15T04:19:51.656Z,91.10
2017-05-15T04:22:20.727Z,91.30
2017-05-15T04:24:49.826Z,91.10
2017-05-15T04:27:18.898Z,91.10
2017-05-15T04:29:48.731Z,91.00
2017-05-15T04:32:17.807Z,90.90
2017-05-15T04:34:47.022Z,91.10
2017-05-15T04:37:16.086Z,90.90
2017-05-15T04:39:45.159Z,90.90
2017-05-15T04:42:15.035Z,90.90
2017-05-15T04:44:44.104Z,90.90
2017-05-15T04:47:13.195Z,90.60
2017-05-15T04:49:42.259Z,90.40
2017-05-15T04:52:11.823Z,90.20
2017-05-15T04:54:40.898Z,90.30
2017-05-15T04:57:09.971Z,90.40
2017-05-15T04:59:39.076Z,90.40
2017-05-15T05:02:08.175Z,90.90
2017-05-15T05:04:38.012Z,90.70
2017-05-15T05:07:07.113Z,90.80
2017-05-15T05:09:36.518Z,90.60
2017-05-15T05:12:05.785Z,90.40
2017-05-15T05:14:35.205Z,90.10
2017-05-15T05:17:04.323Z,90.10
2017-05-15T05:19:55.307Z,89.30
2017-05-15T05:25:43.599Z,87.10
2017-05-15T05:28:44.174Z,87.00
2017-05-15T05:31:29.207Z,86.80
2017-05-15T05:34:05.951Z,88.30
2017-05-15T05:36:42.634Z,88.50
2017-05-15T05:39:23.437Z,88.80
2017-05-15T05:41:54.028Z,88.60
2017-05-15T05:44:23.099Z,88.20
2017-05-15T05:46:52.727Z,87.90
2017-05-15T05:49:21.807Z,87.90
2017-05-15T05:51:50.879Z,88.30
2017-05-15T05:54:20.730Z,88.00
2017-05-15T05:57:11.378Z,88.00
2017-05-15T06:00:16.817Z,87.80
2017-05-15T06:03:08.508Z,89.40
2017-05-15T06:05:49.563Z,90.00
2017-05-15T06:08:37.891Z,89.30
2017-05-15T06:11:19.491Z,89.40
2017-05-15T06:14:12.551Z,90.00
2017-05-15T06:17:07.331Z,89.90
2017-05-15T06:19:35.915Z,89.50
2017-05-15T06:22:05.002Z,89.40
2017-05-15T06:24:46.727Z,89.40
2017-05-15T06:27:15.857Z,87.40
2017-05-15T06:29:44.920Z,86.70
2017-05-15T06:32:14.011Z,87.40
2017-05-15T06:34:43.079Z,87.80
2017-05-15T06:37:12.235Z,86.70
2017-05-15T06:39:53.400Z,85.30
2017-05-15T06:42:29.295Z,85.10
2017-05-15T06:44:58.347Z,84.80
2017-05-15T06:47:27.414Z,84.10
2017-05-15T06:49:56.515Z,82.90
2017-05-15T06:52:25.578Z,82.10
2017-05-15T06:54:55.718Z,82.00
2017-05-15T06:57:24.795Z,79.10
2017-05-15T06:59:53.891Z,80.10
2017-05-15T07:02:23.732Z,80.50
2017-05-15T07:04:52.803Z,82.20
2017-05-15T07:07:21.925Z,82.00
2017-05-15T07:09:50.991Z,80.90
2017-05-15T07:12:20.815Z,80.80
2017-05-15T07:14:49.929Z,81.60
2017-05-15T07:17:18.999Z,79.70
2017-05-15T07:19:48.826Z,79.30
2017-05-15T07:22:17.891Z,78.30
2017-05-15T07:24:46.983Z,79.00
2017-05-15T07:27:16.903Z,78.90
2017-05-15T07:29:47.339Z,80.10
2017-05-15T07:32:16.456Z,79.00
2017-05-15T07:34:45.551Z,78.60
2017-05-15T07:37:14.653Z,78.60
2017-05-15T07:39:43.767Z,80.50
2017-05-15T07:42:12.831Z,78.20
2017-05-15T07:44:41.939Z,75.20
2017-05-15T07:47:11.385Z,76.40
2017-05-15T07:49:40.563Z,76.70
2017-05-15T07:52:09.624Z,77.00
2017-05-15T07:54:38.699Z,76.40
2017-05-15T07:57:07.772Z,75.30
2017-05-15T07:59:37.155Z,74.80
2017-05-15T08:02:06.999Z,72.90
2017-05-15T08:04:36.276Z,72.50
2017-05-15T08:07:05.367Z,73.00
2017-05-15T08:09:34.466Z,73.60
2017-05-15T08:12:03.812Z,71.10
2017-05-15T08:14:32.887Z,72.10
2017-05-15T08:17:02.415Z,72.70
2017-05-15T08:19:31.623Z,72.40
2017-05-15T08:22:00.700Z,70.00
2017-05-15T08:24:29.791Z,72.00
2017-05-15T08:26:58.851Z,72.10
2017-05-15T08:29:28.291Z,70.20
2017-05-15T08:31:57.350Z,70.00
2017-05-15T08:34:27.183Z,69.50
2017-05-15T08:36:57.023Z,68.30
2017-05-15T08:39:26.107Z,68.50
2017-05-15T08:41:55.204Z,67.30
2017-05-15T08:44:24.266Z,66.40
2017-05-15T08:46:53.541Z,65.00
2017-05-15T08:49:22.610Z,65.90
2017-05-15T08:51:51.715Z,65.10
2017-05-15T08:54:20.818Z,64.60
2017-05-15T08:56:49.894Z,64.00
2017-05-15T08:59:19.051Z,61.80
2017-05-15T09:01:48.143Z,63.10
2017-05-15T09:04:17.268Z,63.60
2017-05-15T09:06:46.363Z,63.90
2017-05-15T09:09:15.567Z,59.50
2017-05-15T09:11:44.645Z,57.40
2017-05-15T09:14:13.721Z,57.10
2017-05-15T09:16:42.814Z,55.90
2017-05-15T09:19:12.868Z,56.00
2017-05-15T09:21:41.954Z,55.80
2017-05-15T09:24:11.018Z,55.30
2017-05-15T09:26:41.256Z,55.00
2017-05-15T09:29:10.440Z,56.00
2017-05-15T09:31:40.276Z,56.60
2017-05-15T09:34:09.427Z,56.50
2017-05-15T09:36:38.645Z,56.00
2017-05-15T09:39:07.773Z,56.30
2017-05-15T09:41:36.847Z,57.30
2017-05-15T09:44:05.955Z,56.00
2017-05-15T09:46:35.028Z,56.00
2017-05-15T09:49:05.060Z,55.20
2017-05-15T09:51:34.135Z,55.00
2017-05-15T09:54:03.931Z,55.20
2017-05-15T09:56:33.796Z,55.00
2017-05-15T09:59:02.863Z,56.00
2017-05-15T10:01:31.966Z,55.10
2017-05-15T10:04:01.035Z,54.80
2017-05-15T10:06:30.980Z,54.60
2017-05-15T10:09:00.071Z,54.10
2017-05-15T10:11:29.151Z,53.20
2017-05-15T10:13:58.991Z,51.30
2017-05-15T10:16:28.073Z,53.20
2017-05-15T10:18:57.176Z,53.80
2017-05-15T10:21:26.226Z,53.10
2017-05-15T10:23:55.330Z,52.60
2017-05-15T10:26:24.436Z,52.20
2017-05-15T10:28:54.678Z,51.40
2017-05-15T10:31:23.803Z,51.90
2017-05-15T10:33:52.871Z,50.00
2017-05-15T10:36:22.043Z,48.00
2017-05-15T10:38:51.162Z,48.60
2017-05-15T10:41:20.287Z,48.90
2017-05-15T10:43:49.395Z,48.80
2017-05-15T10:46:19.261Z,47.20
2017-05-15T10:48:48.326Z,47.60
2017-05-15T10:51:18.472Z,48.20
2017-05-15T10:53:47.574Z,48.50
2017-05-15T10:56:16.667Z,47.80
2017-05-15T10:58:45.777Z,48.00
2017-05-15T11:01:14.862Z,47.60
2017-05-15T11:03:44.139Z,47.70
2017-05-15T11:06:13.951Z,47.60
2017-05-15T11:08:43.044Z,47.60
2017-05-15T11:11:12.147Z,48.60
2017-05-15T11:13:41.235Z,48.30
2017-05-15T11:16:10.482Z,49.70
2017-05-15T11:18:39.563Z,47.90
2017-05-15T11:21:08.756Z,48.60
2017-05-15T11:23:37.908Z,48.20
2017-05-15T11:26:06.973Z,45.00
2017-05-15T11:28:37.371Z,43.90
2017-05-15T11:31:06.570Z,45.10
2017-05-15T11:33:35.704Z,45.60
2017-05-15T11:36:05.533Z,46.00
2017-05-15T11:38:35.374Z,44.60
2017-05-15T11:41:04.491Z,44.90
2017-05-15T11:43:33.688Z,46.20
2017-05-15T11:46:02.764Z,45.10
2017-05-15T11:48:31.865Z,44.20
2017-05-15T11:51:00.944Z,44.10
2017-05-15T11:53:30.011Z,43.40
2017-05-15T11:55:59.345Z,43.40
2017-05-15T11:58:28.416Z,39.30
2017-05-15T12:00:57.506Z,41.40
2017-05-15T12:03:26.608Z,43.00
2017-05-15T12:05:56.415Z,42.80
2017-05-15T12:08:25.507Z,43.40
2017-05-15T12:10:55.911Z,44.60
2017-05-15T12:13:25.267Z,44.20
2017-05-15T12:15:54.330Z,43.30
2017-05-15T12:18:24.143Z,43.00
2017-05-15T12:20:53.982Z,42.70
2017-05-15T12:23:23.835Z,42.30
2017-05-15T12:25:53.039Z,43.20
2017-05-15T12:28:22.099Z,41.20
2017-05-15T12:30:51.165Z,40.90
2017-05-15T12:33:20.979Z,40.30
2017-05-15T12:35:50.194Z,42.00
2017-05-15T12:38:19.482Z,41.70
2017-05-15T12:40:48.560Z,41.90
2017-05-15T12:43:18.387Z,42.10
2017-05-15T12:45:48.213Z,40.90
2017-05-15T12:48:17.327Z,40.90
2017-05-15T12:50:46.439Z,41.70
2017-05-15T12:53:15.501Z,41.90
2017-05-15T12:55:44.749Z,41.80
2017-05-15T12:58:13.800Z,41.80
2017-05-15T13:00:42.866Z,42.00
2017-05-15T13:03:11.953Z,43.70
2017-05-15T13:05:41.017Z,42.00
2017-05-15T13:08:10.095Z,42.30
2017-05-15T13:10:39.181Z,42.40
2017-05-15T13:13:08.365Z,41.10
2017-05-15T13:15:37.449Z,41.30
2017-05-15T13:18:06.511Z,40.30
2017-05-15T13:20:35.638Z,41.70
2017-05-15T13:23:04.772Z,41.80
2017-05-15T13:25:33.863Z,41.60
2017-05-15T13:28:02.962Z,42.40
2017-05-15T13:30:32.231Z,41.40
2017-05-15T13:33:01.316Z,41.60
2017-05-15T13:35:31.139Z,41.50
2017-05-15T13:38:00.207Z,41.90
2017-05-15T13:40:29.316Z,41.50
2017-05-15T13:42:58.442Z,42.20
2017-05-15T13:45:27.501Z,40.70
2017-05-15T13:47:57.010Z,41.20
2017-05-15T13:50:26.115Z,39.70
2017-05-15T13:52:55.207Z,40.20
2017-05-15T13:55:24.335Z,39.50
2017-05-15T13:57:53.399Z,39.40
2017-05-15T14:00:22.599Z,39.90
2017-05-15T14:02:51.719Z,39.70
2017-05-15T14:05:20.847Z,39.00
2017-05-15T14:07:49.910Z,37.70
2017-05-15T14:10:19.112Z,38.40
2017-05-15T14:12:48.211Z,38.00
2017-05-15T14:15:17.334Z,37.80
2017-05-15T14:17:47.431Z,37.40
2017-05-15T14:20:16.572Z,37.40
2017-05-15T14:22:45.657Z,37.80
2017-05-15T14:25:15.268Z,38.00
2017-05-15T14:27:45.493Z,38.10
2017-05-15T14:30:14.550Z,38.10
2017-05-15T14:32:43.749Z,37.90
2017-05-15T14:35:12.794Z,37.40
2017-05-15T14:37:41.865Z,37.80
2017-05-15T14:40:10.976Z,38.20
2017-05-15T14:42:40.107Z,38.50
2017-05-15T14:45:09.674Z,38.30
2017-05-15T14:47:38.767Z,38.50
2017-05-15T14:50:07.861Z,38.30
2017-05-15T14:52:36.947Z,38.00
2017-05-15T14:55:06.049Z,39.00
2017-05-15T14:57:35.160Z,36.60
2017-05-15T15:00:04.232Z,36.20
2017-05-15T15:02:33.635Z,36.70
2017-05-15T15:05:02.992Z,37.40
2017-05-15T15:07:32.056Z,36.70
2017-05-15T15:10:01.147Z,36.00
2017-05-15T15:12:30.235Z,34.90
2017-05-15T15:14:59.343Z,34.70
2017-05-15T15:17:28.920Z,33.30
2017-05-15T15:19:58.133Z,33.10
2017-05-15T15:22:27.254Z,30.40
2017-05-15T15:24:56.308Z,30.00
2017-05-15T15:27:25.407Z,31.50
2017-05-15T15:29:54.477Z,30.30
2017-05-15T15:32:23.950Z,30.20
2017-05-15T15:34:53.044Z,29.80
2017-05-15T15:37:22.115Z,28.70
2017-05-15T15:39:51.227Z,28.30
2017-05-15T15:42:20.315Z,27.90
2017-05-15T15:44:49.598Z,27.70
2017-05-15T15:47:19.138Z,26.60
2017-05-15T15:49:48.197Z,25.80
2017-05-15T15:52:17.284Z,26.40
2017-05-15T15:54:46.366Z,25.50
2017-05-15T15:57:15.602Z,24.90
2017-05-15T15:59:44.687Z,23.80
2017-05-15T16:02:13.764Z,24.00
2017-05-15T16:04:42.948Z,23.40
2017-05-15T16:07:12.000Z,22.80
2017-05-15T16:09:41.197Z,22.10
2017-05-15T16:12:11.060Z,22.50
2017-05-15T16:14:40.304Z,23.30
2017-05-15T16:17:09.360Z,23.90
2017-05-15T16:19:38.419Z,23.40
2017-05-15T16:22:08.233Z,23.50
2017-05-15T16:24:37.402Z,23.30
2017-05-15T16:27:07.581Z,22.80
2017-05-15T16:29:36.960Z,22.80
2017-05-15T16:32:06.770Z,22.10
2017-05-15T16:34:35.977Z,22.30
2017-05-15T16:37:05.035Z,21.50
2017-05-15T16:39:34.527Z,21.30
2017-05-15T16:42:03.923Z,20.90
2017-05-15T16:44:32.985Z,20.40
2017-05-15T16:47:02.075Z,20.30
2017-05-15T16:49:31.124Z,20.80
2017-05-15T16:52:00.217Z,20.10
2017-05-15T16:54:29.275Z,20.30
2017-05-15T16:56:58.535Z,20.10
2017-05-15T16:59:27.703Z,19.70
2017-05-15T17:01:56.766Z,18.90
2017-05-15T17:04:25.870Z,18.70
2017-05-15T17:06:54.941Z,19.00
2017-05-15T17:09:24.026Z,20.00
2017-05-15T17:11:53.099Z,21.00
2017-05-15T17:14:22.452Z,22.40
2017-05-15T17:16:51.480Z,22.60
2017-05-15T17:19:20.563Z,23.70
2017-05-15T17:21:49.647Z,24.60
2017-05-15T17:24:18.688Z,24.30
2017-05-15T17:26:47.796Z,24.30
2017-05-15T17:29:16.846Z,24.60
2017-05-15T17:31:46.851Z,24.80
2017-05-15T17:34:15.940Z,25.10
2017-05-15T17:36:45.019Z,25.40
2017-05-15T17:39:14.127Z,26.30
2017-05-15T17:41:43.554Z,27.20
2017-05-15T17:44:13.490Z,27.40
2017-05-15T17:46:42.564Z,27.40
2017-05-15T17:49:11.651Z,27.80
2017-05-15T17:51:40.767Z,28.20
2017-05-15T17:54:10.584Z,29.90
2017-05-15T17:56:40.399Z,29.90
2017-05-15T17:59:09.490Z,30.50
2017-05-15T18:01:38.639Z,31.60
2017-05-15T18:04:08.287Z,32.70
2017-05-15T18:06:38.444Z,33.30
2017-05-15T18:09:07.507Z,32.90
2017-05-15T18:11:37.297Z,33.00
2017-05-15T18:14:07.131Z,34.20
2017-05-15T18:16:36.191Z,33.40
2017-05-15T18:19:05.385Z,34.00
2017-05-15T18:21:34.463Z,34.90
2017-05-15T18:24:03.515Z,35.80
2017-05-15T18:26:32.619Z,36.40
2017-05-15T18:29:01.695Z,37.10
2017-05-15T18:31:31.636Z,37.30
2017-05-15T18:34:00.744Z,37.80
2017-05-15T18:36:30.106Z,37.30
2017-05-15T18:38:59.195Z,37.90
2017-05-15T18:41:28.987Z,38.60
2017-05-15T18:43:58.062Z,39.10
2017-05-15T18:46:27.134Z,41.70
2017-05-15T18:48:56.267Z,42.70
2017-05-15T18:51:26.107Z,43.40
2017-05-15T18:53:56.012Z,44.20
2017-05-15T18:56:25.061Z,44.40
2017-05-15T18:58:54.910Z,44.90
2017-05-15T19:01:24.738Z,45.00
2017-05-15T19:03:53.812Z,45.30
2017-05-15T19:06:22.901Z,46.20
2017-05-15T19:08:51.948Z,46.40
2017-05-15T19:11:21.043Z,46.10
2017-05-15T19:13:50.119Z,46.30
2017-05-15T19:16:19.196Z,46.30
2017-05-15T19:18:48.298Z,47.40
2017-05-15T19:21:18.087Z,47.80
2017-05-15T19:23:47.915Z,48.80
2017-05-15T19:26:17.714Z,49.20
2017-05-15T19:28:46.783Z,49.20
2017-05-15T19:31:15.862Z,48.60
2017-05-15T19:33:45.445Z,48.40
2017-05-15T19:36:14.521Z,48.50
2017-05-15T19:38:43.580Z,48.60
2017-05-15T19:41:12.675Z,48.70
2017-05-15T19:43:41.729Z,48.80
2017-05-15T19:46:10.806Z,48.70
2017-05-15T19:48:39.867Z,49.30
2017-05-15T19:51:09.693Z,49.60
2017-05-15T19:53:39.035Z,49.20
2017-05-15T19:56:08.214Z,48.90
2017-05-15T19:58:37.403Z,49.30
2017-05-15T20:01:06.467Z,49.30
2017-05-15T20:03:35.539Z,49.90
2017-05-15T20:06:05.363Z,50.50
2017-05-15T20:08:34.460Z,51.10
2017-05-15T20:11:04.275Z,52.00
2017-05-15T20:13:33.461Z,51.90
2017-05-15T20:16:02.498Z,52.10
2017-05-15T20:18:31.586Z,51.90
2017-05-15T20:21:01.607Z,52.30
2017-05-15T20:23:31.395Z,52.70
2017-05-15T20:26:00.474Z,53.00
2017-05-15T20:28:29.560Z,53.50
2017-05-15T20:30:59.015Z,53.50
2017-05-15T20:33:28.090Z,53.90
2017-05-15T20:35:57.132Z,54.50
2017-05-15T20:38:26.221Z,55.80
2017-05-15T20:40:55.291Z,56.70
2017-05-15T20:43:24.495Z,56.90
2017-05-15T20:45:53.542Z,56.20
2017-05-15T20:48:22.632Z,56.20
2017-05-15T20:50:51.696Z,56.40
2017-05-15T20:53:21.172Z,56.40
2017-05-15T20:55:50.240Z,56.60
2017-05-15T20:58:19.288Z,56.50
2017-05-15T21:00:48.365Z,56.40
2017-05-15T21:03:17.423Z,56.20
2017-05-15T21:05:47.275Z,56.10
2017-05-15T21:08:16.324Z,56.00
2017-05-15T21:10:45.754Z,55.60
2017-05-15T21:13:14.853Z,55.40
2017-05-15T21:15:43.935Z,55.50
2017-05-15T21:18:13.171Z,55.90
2017-05-15T21:20:42.254Z,56.20
2017-05-15T21:23:13.184Z,56.90
2017-05-15T21:25:42.282Z,56.80
2017-05-15T21:28:11.380Z,56.80
2017-05-15T21:30:40.474Z,57.00
2017-05-15T21:33:09.552Z,57.40
2017-05-15T21:35:38.644Z,57.50
2017-05-15T21:38:08.444Z,57.80
2017-05-15T21:40:37.577Z,58.40
2017-05-15T21:43:06.654Z,58.40
2017-05-15T21:45:35.838Z,58.70
2017-05-15T21:48:05.231Z,58.70
2017-05-15T21:50:34.320Z,58.90
2017-05-15T21:53:05.202Z,58.80
2017-05-15T21:55:35.376Z,59.10
2017-05-15T21:58:05.426Z,58.90
2017-05-15T22:00:34.493Z,59.00
2017-05-15T22:03:03.564Z,59.30
2017-05-15T22:08:07.823Z,59.60
2017-05-15T22:10:36.888Z,60.00
2017-05-15T22:13:06.710Z,60.60
2017-05-15T22:15:36.771Z,60.80
2017-05-15T22:18:05.871Z,61.00
2017-05-15T22:20:34.918Z,61.40
2017-05-15T22:23:04.758Z,62.00
2017-05-15T22:25:34.547Z,62.10
2017-05-15T22:28:03.986Z,62.40
2017-05-15T22:30:33.048Z,62.60
2017-05-15T22:33:02.849Z,63.40
2017-05-15T22:35:31.946Z,63.30
2017-05-15T22:38:00.990Z,63.50
2017-05-15T22:40:30.086Z,63.70
2017-05-15T22:42:59.175Z,63.70
2017-05-15T22:45:28.363Z,63.80
2017-05-15T22:47:57.434Z,64.00
2017-05-15T22:50:27.243Z,63.80
2017-05-15T22:52:56.320Z,63.50
2017-05-15T22:55:25.365Z,63.70
2017-05-15T22:57:54.472Z,63.40
2017-05-15T23:00:23.528Z,64.30
2017-05-15T23:02:53.354Z,63.00
2017-05-15T23:05:23.166Z,62.80
2017-05-15T23:07:52.258Z,62.90
2017-05-15T23:10:21.332Z,62.20
2017-05-15T23:12:51.476Z,62.10
2017-05-15T23:15:20.548Z,61.60
2017-05-15T23:17:49.617Z,61.60
2017-05-15T23:20:18.707Z,61.90
2017-05-15T23:22:47.790Z,61.50
2017-05-15T23:25:16.874Z,61.50
2017-05-15T23:27:45.938Z,61.60
2017-05-15T23:30:15.148Z,61.40
2017-05-15T23:32:44.238Z,60.90
2017-05-15T23:35:13.297Z,60.90
2017-05-15T23:37:42.386Z,61.10
2017-05-15T23:40:12.211Z,60.80
2017-05-15T23:42:42.048Z,60.90
2017-05-15T23:45:11.111Z,61.10
2017-05-15T23:47:40.567Z,60.80
2017-05-15T23:50:09.627Z,60.60
2017-05-15T23:52:38.707Z,60.60
2017-05-15T23:55:07.783Z,60.80
2017-05-15T23:57:37.604Z,61.10
